• Join FlightAware (Why Join?)
  • Login
  • US Flag 
03:19PM EDT


 

Airport Tracker/Info


-or-


 

Live Flight TrackerFlight Track Log ✈ CTL17 ✈ 01-Jul-2013 ✈ KBKL - KPTK

Flight Track Log - Related Links

Times and Time Zones

All times are in EDT time to prevent confusion due to time zone crossing. See the CTL17 flight status page for this flight to view local times or setup timezone preferences in your user account.

Time Position Orientation Groundspeed Altitude Reporting Facility
EDT Latitude Longitude Course Direction KTS MPH feet Rate Location/Type
07:24PM 41.7881 -82.4742 312° West 190 219 6,000  Level Cleveland Center
07:25PM 41.8158 -82.5614 293° West 188 216 6,000  Level Cleveland Center
07:26PM 41.8397 -82.6150 301° West 187 215 6,000  Level Cleveland Center
07:27PM 41.8811 -82.6386 337° Northwest 171 197 6,000 -360 Level Cleveland Center
07:28PM 41.9328 -82.6625 341° North 195 224 5,400 -420 Descending Cleveland Center
07:29PM 42.1656 -82.6513 312° West  Level Estimated
07:29PM 41.9761 -82.6919 333° Northwest 192 221 5,200  Level Cleveland Center
07:30PM 42.0211 -82.7297 328° Northwest 189 217 5,000 -120 Descending Cleveland Center
07:31PM 42.0622 -82.7592 332° Northwest 183 211 5,000  Level Cleveland Center
07:32PM 42.1075 -82.7886 334° Northwest 180 207 5,000  Level Cleveland Center
07:33PM 42.1508 -82.8208 331° Northwest 181 208 5,000  Level Cleveland Center
07:34PM 42.2064 -82.8594 333° Northwest 183 211 5,000  Level Cleveland Center
07:35PM 42.2536 -82.8864 337° Northwest 179 206 5,000  Level Cleveland Center
07:36PM 42.2989 -82.9244 328° Northwest 180 207 5,000 -480 Level Cleveland Center
07:37PM 42.3461 -82.9542 335° Northwest 201 231 4,100 -540 Descending Cleveland Center
07:38PM 42.3892 -82.9869 331° Northwest 175 201 4,000 -60 Descending Cleveland Center
07:39PM 42.4261 -83.0108 334° Northwest 167 192 4,000  Level Cleveland Center
07:40PM 42.4775 -83.0522 329° Northwest 160 184 4,000  Level Cleveland Center
07:41PM 42.4992 -83.1094 297° West 173 199 4,000  Level Cleveland Center
07:42PM 42.5167 -83.1636 294° West 175 201 4,000  Level Cleveland Center
07:43PM 42.5364 -83.2208 295° West 178 205 4,000 -240 Level Cleveland Center
07:44PM 42.5600 -83.2808 298° West 192 221 3,600 -720 Descending Cleveland Center
07:45PM 42.5836 -83.3383 299° West 203 234 2,700 -840 Descending Cleveland Center
07:46PM 42.6111 -83.4017 301° West 183 211 2,000 -480 Descending Cleveland Center
07:47PM 42.6433 -83.4539 310° West 138 159 1,700 -300 Descending Cleveland Center